Time;durP1;ratioP1;P1;durP2;ratioP2;P2;SDS_P1;SDS_P2;PMS_P1;PMS_P2;Temp;Humidity;BMP_temperature;BMP_pressure;BME280_temperature;BME280_humidity;BME280_pressure;Samples;Min_cycle;Max_cycle;Signal;HPM_P1;HPM_P2
2022/11/29 00:00:57;;;;;;;12.38;6.70;;;;;;;-0.54;64.01;102070.50;6165206;23;20043;-87
2022/11/29 00:03:50;;;;;;;14.18;6.72;;;;;;;-0.81;63.58;102005.44;6178676;23;20031;-88
2022/11/29 00:06:42;;;;;;;15.88;7.05;;;;;;;-1.28;63.83;101957.03;6197771;23;20032;-87
2022/11/29 00:09:11;;;;;;;9.90;5.28;;;;;;;-1.25;64.16;101994.28;6191841;23;20063;-87
2022/11/29 00:15:22;;;;;;;19.25;7.07;;;;;;;-0.82;64.03;102036.00;6219206;23;20500;-87
2022/11/29 00:17:57;;;;;;;14.55;7.35;;;;;;;-0.88;64.21;102030.47;6192151;23;20066;-87
2022/11/29 00:20:27;;;;;;;15.55;7.47;;;;;;;-1.53;64.17;101945.47;6219978;23;20481;-88
2022/11/29 00:22:53;;;;;;;17.60;8.20;;;;;;;-1.31;64.76;101995.78;6192411;23;20083;-88
2022/11/29 00:25:19;;;;;;;18.77;7.43;;;;;;;-1.45;64.38;101978.53;6167524;23;20358;-87
2022/11/29 00:27:50;;;;;;;14.95;7.97;;;;;;;-0.97;64.90;102065.38;6167325;23;20023;-93
2022/11/29 00:30:18;;;;;;;17.08;8.40;;;;;;;-1.57;64.58;101952.19;6142640;23;20082;-89
2022/11/29 00:32:44;;;;;;;18.08;9.18;;;;;;;-0.96;64.44;102052.78;6218949;23;20020;-89
2022/11/29 00:35:10;;;;;;;20.48;9.40;;;;;;;-1.42;64.07;101967.47;6140769;23;20059;-87
2022/11/29 00:37:36;;;;;;;19.23;9.10;;;;;;;-1.20;64.26;102008.84;6216061;23;20016;-87
2022/11/29 00:40:04;;;;;;;16.83;8.73;;;;;;;-1.61;64.30;101932.94;6164591;23;20474;-88
2022/11/29 00:42:39;;;;;;;17.20;9.48;;;;;;;-1.14;64.26;102006.50;6165127;23;20063;-87
2022/11/29 00:45:59;;;;;;;16.73;8.80;;;;;;;-0.80;63.95;102044.69;6165821;23;20070;-90
2022/11/29 00:48:53;;;;;;;21.05;8.95;;;;;;;-0.81;63.97;102037.66;6179635;23;20017;-87
2022/11/29 00:53:51;;;;;;;19.73;9.00;;;;;;;-1.40;64.24;101979.84;6218926;23;20063;-87
2022/11/29 00:56:32;;;;;;;20.23;9.80;;;;;;;-1.45;64.29;101962.44;6168930;23;20062;-87
2022/11/29 00:58:58;;;;;;;22.00;9.23;;;;;;;-1.21;63.92;101996.44;6192825;23;20024;-90
2022/11/29 01:04:05;;;;;;;18.52;9.40;;;;;;;-1.43;63.96;101962.25;6217981;23;20021;-89
2022/11/29 01:06:32;;;;;;;23.85;10.18;;;;;;;-1.02;63.76;102021.28;6189910;23;20021;-87
2022/11/29 01:09:59;;;;;;;22.38;9.48;;;;;;;-0.86;63.29;102045.41;6216183;23;20023;-87
2022/11/29 01:12:25;;;;;;;22.17;10.07;;;;;;;-1.20;63.60;102008.84;6164452;23;20020;-87
2022/11/29 01:14:51;;;;;;;17.92;9.32;;;;;;;-1.13;63.29;102002.81;6189109;23;20016;-87
2022/11/29 01:17:22;;;;;;;18.08;9.18;;;;;;;-1.73;63.08;101913.63;6189440;23;20535;-87
2022/11/29 01:22:26;;;;;;;18.60;9.20;;;;;;;-1.09;63.49;102034.53;6217474;23;20091;-92
2022/11/29 01:24:55;;;;;;;20.08;9.32;;;;;;;-1.21;63.82;102007.19;6189918;23;20024;-87
2022/11/29 01:27:24;;;;;;;15.52;8.18;;;;;;;-1.04;63.78;102045.59;6140647;23;20421;-85
2022/11/29 01:29:50;;;;;;;22.98;9.98;;;;;;;-1.09;63.48;102017.56;6143194;23;20023;-86
2022/11/29 01:32:23;;;;;;;18.88;9.43;;;;;;;-1.23;63.87;102025.28;6166892;23;20012;-87
2022/11/29 01:34:58;;;;;;;18.85;9.02;;;;;;;-1.35;64.36;102017.78;6218955;23;20450;-86
2022/11/29 01:37:27;;;;;;;22.25;9.60;;;;;;;-1.67;64.33;101969.28;6218477;23;20013;-87
2022/11/29 01:40:01;;;;;;;20.15;9.32;;;;;;;-1.27;64.21;102007.03;6191243;23;20059;-87
2022/11/29 01:42:34;;;;;;;15.48;8.38;;;;;;;-1.63;64.00;101944.81;6218391;23;20104;-90
2022/11/29 01:45:06;;;;;;;16.83;8.32;;;;;;;-1.43;63.76;101975.66;6190079;23;20404;-91
2022/11/29 01:47:45;;;;;;;19.77;8.98;;;;;;;-1.54;64.46;102013.56;6191770;23;20027;-89
2022/11/29 01:50:43;;;;;;;15.32;8.35;;;;;;;-1.33;64.26;102043.41;6194767;23;20021;-87
2022/11/29 01:56:00;;;;;;;18.55;8.73;;;;;;;-1.81;64.61;101969.13;6216576;23;20062;-86
2022/11/29 01:58:31;;;;;;;15.65;8.02;;;;;;;-1.49;64.36;102032.66;6163744;23;20021;-86
2022/11/29 02:00:59;;;;;;;18.27;8.30;;;;;;;-1.54;64.08;102003.66;6172977;23;20036;-87
2022/11/29 02:03:27;;;;;;;18.92;8.10;;;;;;;-1.48;63.74;102004.84;6208925;23;20013;-85
2022/11/29 02:05:59;;;;;;;;;;;;;;;-1.35;63.54;102048.13;6143037;23;20050;-86
2022/11/29 02:12:19;;;;;;;13.00;7.40;;;;;;;-1.36;63.60;102046.44;6192177;23;20017;-87
2022/11/29 02:15:30;;;;;;;16.85;8.32;;;;;;;-1.38;63.45;102055.66;6167305;23;20016;-92
2022/11/29 02:18:14;;;;;;;15.13;8.02;;;;;;;-1.85;63.42;101997.25;6143090;23;20459;-87
2022/11/29 02:21:31;;;;;;;17.13;8.48;;;;;;;-1.41;63.25;102056.84;6192007;23;20047;-95
2022/11/29 02:24:18;;;;;;;14.02;7.88;;;;;;;-1.52;62.77;102057.16;6141231;23;20103;-88
2022/11/29 02:27:34;;;;;;;18.30;8.13;;;;;;;-1.50;63.08;102053.28;6141729;23;20020;-89
2022/11/29 02:37:14;;;;;;;13.23;7.82;;;;;;;-1.58;62.51;102041.72;6091963;23;20477;-87
2022/11/29 02:40:22;;;;;;;13.25;7.30;;;;;;;-1.62;62.02;102056.47;6082744;23;20050;-87
2022/11/29 02:44:02;;;;;;;16.38;7.20;;;;;;;-1.63;62.47;102050.25;6085018;23;20033;-96
2022/11/29 02:47:08;;;;;;;14.75;7.93;;;;;;;-1.61;62.40;102050.94;6104532;23;20021;-86
2022/11/29 02:50:24;;;;;;;19.63;9.05;;;;;;;-1.61;62.23;102056.31;6079136;23;20025;-87
2022/11/29 02:53:09;;;;;;;14.10;7.22;;;;;;;-1.71;62.33;102055.63;6102350;23;20483;-88
2022/11/29 02:56:40;;;;;;;19.05;7.93;;;;;;;-1.60;62.28;102057.97;6053609;23;20017;-88
2022/11/29 02:59:33;;;;;;;17.38;7.72;;;;;;;-2.07;61.82;101977.28;6046801;23;20085;-94
2022/11/29 03:02:43;;;;;;;15.77;7.82;;;;;;;-1.53;61.83;102061.69;6025441;23;20527;-88
2022/11/29 03:05:47;;;;;;;14.68;7.75;;;;;;;-1.57;61.69;102062.19;6096120;23;20050;-88
2022/11/29 03:08:53;;;;;;;17.55;7.70;;;;;;;-1.62;61.86;102067.19;6078079;23;20460;-87
2022/11/29 03:11:38;;;;;;;;;;;;;;;-1.59;61.76;102062.38;6082127;23;20333;-95
2022/11/29 03:15:01;;;;;;;13.00;7.50;;;;;;;-1.63;61.57;102069.03;6136848;23;19941;-93
2022/11/29 03:18:01;;;;;;;;;;;;;;;-1.67;61.37;102062.34;6137728;23;20022;-86
2022/11/29 03:21:26;;;;;;;14.38;8.00;;;;;;;-1.75;61.17;102056.97;6087903;23;19916;-89
2022/11/29 03:24:39;;;;;;;18.90;8.82;;;;;;;-1.85;61.69;102057.09;6111489;23;20022;-89
2022/11/29 03:33:06;;;;;;;16.50;8.15;;;;;;;-1.90;61.62;102064.78;6045991;23;20087;-94
2022/11/29 03:35:55;;;;;;;17.20;8.30;;;;;;;-1.75;61.17;102060.47;6045495;23;20155;-84
2022/11/29 03:38:46;;;;;;;19.38;9.60;;;;;;;-1.97;60.82;102034.28;5994045;23;20336;-84
2022/11/29 03:41:24;;;;;;;24.63;10.15;;;;;;;-1.91;60.96;102055.06;6039993;23;20023;-84
2022/11/29 03:44:10;;;;;;;20.17;9.98;;;;;;;-1.86;60.61;102070.66;6045936;23;20074;-92
2022/11/29 03:46:57;;;;;;;23.90;10.35;;;;;;;-2.04;60.66;102047.50;6030159;23;20092;-88
2022/11/29 03:50:05;;;;;;;20.05;9.98;;;;;;;-1.95;60.53;102072.50;6026967;23;20229;-87
2022/11/29 03:52:31;;;;;;;21.67;10.30;;;;;;;-1.79;60.13;102077.88;6017122;23;20019;-86
2022/11/29 03:56:07;;;;;;;18.70;9.52;;;;;;;-2.33;59.90;102004.19;5939213;24;20020;-88
2022/11/29 04:06:44;;;;;;;20.85;9.23;;;;;;;-2.00;59.63;102088.22;5817904;24;20018;-84
2022/11/29 04:09:48;;;;;;;16.63;8.77;;;;;;;-2.00;59.86;102090.91;5797740;24;20029;-86
2022/11/29 04:12:59;;;;;;;16.50;8.40;;;;;;;-2.02;59.51;102095.56;5878785;24;20060;-83
2022/11/29 04:15:49;;;;;;;15.27;7.88;;;;;;;-2.16;60.01;102103.22;5855526;24;20394;-91
2022/11/29 04:19:08;;;;;;;19.52;8.65;;;;;;;-2.10;59.33;102096.38;5877944;24;20021;-85
2022/11/29 04:22:04;;;;;;;18.08;7.95;;;;;;;-2.32;59.91;102075.50;5847518;24;20026;-89
2022/11/29 04:24:30;;;;;;;18.15;8.73;;;;;;;-2.14;59.67;102095.03;5876376;24;20048;-84
2022/11/29 04:27:30;;;;;;;15.98;8.70;;;;;;;-2.08;59.45;102093.56;5879493;24;20496;-88
2022/11/29 04:30:24;;;;;;;14.20;8.50;;;;;;;-2.07;59.11;102076.47;5876267;24;20113;-86
2022/11/29 04:33:26;;;;;;;16.58;8.02;;;;;;;-2.22;59.24;102063.69;5910209;24;20028;-90
2022/11/29 04:36:34;;;;;;;17.05;8.07;;;;;;;-2.26;59.92;102093.63;6024688;23;20029;-89
2022/11/29 04:39:42;;;;;;;16.92;8.80;;;;;;;-2.21;60.43;102088.66;6052586;23;20027;-90
2022/11/29 04:42:29;;;;;;;16.02;7.85;;;;;;;-2.05;59.63;102087.84;6105286;23;20052;-91
2022/11/29 04:45:33;;;;;;;16.33;8.70;;;;;;;-1.86;59.24;102092.94;6130115;23;20404;-88
2022/11/29 04:48:09;;;;;;;20.60;8.75;;;;;;;-1.62;58.77;102094.88;6135507;23;20025;-88
2022/11/29 04:51:08;;;;;;;18.95;8.52;;;;;;;-1.75;58.57;102081.94;6078803;23;20025;-84
2022/11/29 04:54:01;;;;;;;17.48;8.73;;;;;;;-1.79;58.55;102045.69;6133459;23;20050;-89
2022/11/29 04:56:48;;;;;;;18.30;8.40;;;;;;;-2.31;58.58;101973.56;6136362;23;20029;-87
2022/11/29 04:59:56;;;;;;;16.40;9.27;;;;;;;-1.56;58.77;102110.28;6070651;23;20023;-91
2022/11/29 05:04:04;;;;;;;19.52;8.88;;;;;;;-1.39;58.92;102121.06;6071148;23;20038;-95
2022/11/29 05:08:06;;;;;;;21.63;10.55;;;;;;;-1.31;59.14;102127.28;6062895;23;20038;-86
2022/11/29 05:11:18;;;;;;;24.13;11.32;;;;;;;-1.49;59.48;102130.13;6050932;23;20063;-96
2022/11/29 05:15:05;;;;;;;24.05;12.38;;;;;;;-1.46;59.42;102135.16;6077521;23;20429;-95
2022/11/29 05:17:52;;;;;;;24.10;11.30;;;;;;;-2.27;59.02;102022.28;6056169;23;20021;-94
2022/11/29 05:20:57;;;;;;;22.55;11.25;;;;;;;-1.52;58.96;102134.97;6050787;23;20124;-84
2022/11/29 05:24:01;;;;;;;24.10;12.75;;;;;;;-1.58;59.13;102138.31;6036271;23;20462;-85
2022/11/29 05:27:09;;;;;;;27.58;11.73;;;;;;;-2.01;59.37;102086.53;6053182;23;20047;-86
2022/11/29 05:30:54;;;;;;;23.08;11.82;;;;;;;-1.81;58.65;102104.03;6041010;23;20060;-88
2022/11/29 05:33:42;;;;;;;22.48;11.77;;;;;;;-1.54;58.61;102153.06;5996363;23;20092;-92
2022/11/29 05:36:14;;;;;;;25.17;12.00;;;;;;;-1.39;57.84;102150.56;5995650;23;20153;-87
2022/11/29 05:39:15;;;;;;;21.23;11.93;;;;;;;-1.82;57.66;102096.13;5980575;24;20496;-85
2022/11/29 05:42:26;;;;;;;24.48;12.43;;;;;;;-2.13;57.96;102049.28;5953806;24;20024;-87
2022/11/29 05:45:00;;;;;;;30.50;14.07;;;;;;;-1.54;57.89;102155.75;5928780;24;20119;-83
2022/11/29 05:47:51;;;;;;;24.80;12.65;;;;;;;-1.74;58.21;102134.56;5927901;24;20064;-86
2022/11/29 05:50:27;;;;;;;26.77;13.23;;;;;;;-1.74;58.37;102139.09;5950596;24;20017;-84
2022/11/29 05:53:37;;;;;;;23.37;12.27;;;;;;;-1.65;57.90;102170.31;5930649;24;20107;-86
2022/11/29 05:56:11;;;;;;;29.75;14.77;;;;;;;-1.67;57.82;102164.25;6038489;23;20092;-84
2022/11/29 05:59:14;;;;;;;27.30;13.55;;;;;;;-1.78;58.04;102172.59;6027009;23;20026;-85
2022/11/29 06:01:55;;;;;;;30.23;14.73;;;;;;;-1.90;58.40;102161.31;5995121;23;20075;-83
2022/11/29 06:04:31;;;;;;;33.03;14.93;;;;;;;-1.79;58.00;102166.38;6036991;23;20040;-89
2022/11/29 06:07:16;;;;;;;29.42;13.88;;;;;;;-1.94;57.64;102136.66;6040486;23;20030;-85
2022/11/29 06:10:06;;;;;;;27.45;13.90;;;;;;;-1.79;57.62;102162.84;6041200;23;20019;-90
2022/11/29 06:13:17;;;;;;;25.73;13.30;;;;;;;-1.91;58.27;102165.00;6036501;23;20057;-89
2022/11/29 06:16:28;;;;;;;32.03;13.90;;;;;;;-1.90;58.07;102166.66;6015731;23;20062;-89
2022/11/29 06:19:03;;;;;;;28.58;13.52;;;;;;;-1.82;57.97;102166.72;6067969;23;20488;-89
2022/11/29 06:21:52;;;;;;;31.23;14.50;;;;;;;-2.10;57.62;102131.22;6052958;23;20018;-89
2022/11/29 06:24:38;;;;;;;27.08;13.77;;;;;;;-1.82;57.56;102182.81;6070524;23;20022;-85
2022/11/29 06:27:36;;;;;;;29.45;13.45;;;;;;;-1.85;57.65;102182.25;6069574;23;20026;-84
2022/11/29 06:30:11;;;;;;;31.98;14.07;;;;;;;-2.05;57.49;102171.81;6068958;23;20025;-86
2022/11/29 06:32:46;;;;;;;26.65;13.70;;;;;;;-1.79;57.04;102193.19;6070240;23;20030;-84
2022/11/29 06:35:44;;;;;;;34.90;15.20;;;;;;;-1.86;57.17;102200.19;6095189;23;20014;-86
2022/11/29 06:38:28;;;;;;;26.95;14.57;;;;;;;-2.20;57.02;102150.09;6094000;23;20018;-84
2022/11/29 06:40:57;;;;;;;26.48;13.80;;;;;;;-2.06;56.87;102171.94;6046299;23;20041;-85
2022/11/29 06:43:25;;;;;;;31.60;15.50;;;;;;;-1.76;56.73;102197.41;6071466;23;20030;-85
2022/11/29 06:46:14;;;;;;;29.30;14.07;;;;;;;-1.96;56.99;102192.28;6096775;23;20122;-86
2022/11/29 06:49:24;;;;;;;30.35;14.75;;;;;;;-2.07;56.99;102170.28;6101884;23;20041;-92
2022/11/29 06:52:38;;;;;;;27.55;13.52;;;;;;;-1.83;56.64;102201.72;6049066;23;20453;-90
2022/11/29 06:55:26;;;;;;;27.70;14.60;;;;;;;-1.78;56.42;102208.31;6015711;23;20402;-91
2022/11/29 06:58:23;;;;;;;26.75;13.88;;;;;;;-2.16;56.43;102138.06;6017858;23;20043;-90
2022/11/29 07:01:26;;;;;;;35.38;13.23;;;;;;;-1.77;56.30;102199.25;6016565;23;20173;-91
2022/11/29 07:04:28;;;;;;;27.52;12.90;;;;;;;-2.00;55.80;102155.22;6048434;23;20030;-90
2022/11/29 07:06:56;;;;;;;26.45;12.27;;;;;;;-2.02;55.71;102151.84;6018030;23;20019;-90
2022/11/29 07:09:29;;;;;;;29.92;12.48;;;;;;;-1.71;55.69;102203.13;6039112;23;20456;-89
2022/11/29 07:12:05;;;;;;;22.70;11.95;;;;;;;-1.93;56.29;102194.63;6015582;23;20167;-86
2022/11/29 07:14:44;;;;;;;26.17;12.63;;;;;;;-1.97;56.08;102163.78;6037786;23;20059;-83
2022/11/29 07:18:05;;;;;;;23.83;11.93;;;;;;;-2.52;56.00;102061.50;6017083;23;20260;-90
2022/11/29 07:20:49;;;;;;;23.40;11.95;;;;;;;-1.62;55.34;102206.66;6042889;23;20051;-89
2022/11/29 07:23:20;;;;;;;23.88;11.90;;;;;;;-1.60;55.02;102210.88;6016824;23;20025;-86
2022/11/29 07:26:50;;;;;;;21.60;10.60;;;;;;;-1.75;55.13;102213.34;6017109;23;20406;-88
2022/11/29 07:30:06;;;;;;;21.73;11.35;;;;;;;-1.73;54.43;102214.00;6018093;23;20023;-90
2022/11/29 07:33:06;;;;;;;21.75;11.02;;;;;;;-1.87;55.07;102213.78;6089881;23;20054;-89
2022/11/29 07:35:51;;;;;;;22.15;10.95;;;;;;;-1.85;55.95;102206.41;6121117;23;20034;-88
2022/11/29 07:38:51;;;;;;;21.45;10.98;;;;;;;-1.77;54.98;102214.50;6122127;23;20028;-89
2022/11/29 07:41:21;;;;;;;28.50;11.50;;;;;;;-1.99;55.81;102213.19;6087585;23;20022;-91
2022/11/29 07:44:23;;;;;;;20.45;10.70;;;;;;;-1.86;55.74;102216.28;6102378;23;20481;-91
2022/11/29 07:46:49;;;;;;;25.10;10.57;;;;;;;-2.07;55.02;102172.97;6103047;23;20022;-88
2022/11/29 07:49:20;;;;;;;22.50;10.60;;;;;;;-2.05;55.09;102160.22;6106280;23;20026;-91
2022/11/29 07:51:57;;;;;;;20.60;10.82;;;;;;;-1.98;55.04;102159.44;6099398;23;20446;-90
2022/11/29 07:54:50;;;;;;;23.98;11.90;;;;;;;-1.66;54.95;102217.75;6075529;23;20029;-89
2022/11/29 07:57:16;;;;;;;20.77;11.27;;;;;;;-1.74;54.66;102188.19;6105706;23;20025;-90
2022/11/29 07:59:43;;;;;;;24.58;11.82;;;;;;;-1.99;54.30;102125.56;6103874;23;20365;-92
2022/11/29 08:05:25;;;;;;;18.23;9.85;;;;;;;-1.73;54.72;102199.75;6082272;23;20085;-93
2022/11/29 08:08:11;;;;;;;20.10;10.35;;;;;;;-1.67;54.71;102209.84;6113446;23;20024;-91
2022/11/29 08:10:38;;;;;;;20.23;9.88;;;;;;;-1.98;54.72;102163.97;6080187;23;20033;-88
2022/11/29 08:13:04;;;;;;;23.98;9.52;;;;;;;-1.56;54.49;102216.75;6106969;23;20414;-90
2022/11/29 08:15:30;;;;;;;18.90;9.82;;;;;;;-1.96;54.05;102153.91;6056617;23;20014;-93
2022/11/29 08:17:56;;;;;;;20.70;10.57;;;;;;;-1.99;54.25;102144.34;6081323;23;20105;-92
2022/11/29 08:20:24;;;;;;;;;;;;;;;-1.64;54.03;102214.91;6080493;23;20026;-89
2022/11/29 08:23:04;;;;;;;19.63;10.30;;;;;;;-1.60;54.46;102205.50;6104333;23;19980;-92
2022/11/29 08:25:31;;;;;;;17.75;9.13;;;;;;;-1.71;53.80;102179.84;6054381;23;20028;-88
2022/11/29 08:28:11;;;;;;;16.40;9.52;;;;;;;-1.30;53.46;102214.84;6076482;23;20022;-91
2022/11/29 08:30:41;;;;;;;20.38;9.93;;;;;;;-1.90;53.41;102129.13;6107385;23;20034;-93
2022/11/29 08:33:07;;;;;;;22.40;11.07;;;;;;;-1.70;53.29;102194.91;6081628;23;20019;-91
2022/11/29 08:35:34;;;;;;;23.83;11.52;;;;;;;-1.83;53.83;102199.03;6032625;23;20175;-87
2022/11/29 08:38:27;;;;;;;18.80;10.15;;;;;;;-1.84;53.99;102206.25;6022506;23;20370;-91
2022/11/29 08:40:53;;;;;;;21.42;10.25;;;;;;;-1.51;53.33;102212.59;5995693;23;20056;-89
2022/11/29 08:43:19;;;;;;;20.20;10.65;;;;;;;-1.35;52.75;102211.81;6043295;23;20130;-88
2022/11/29 08:45:51;;;;;;;20.95;9.98;;;;;;;-1.24;52.31;102216.03;6017730;23;20059;-86
2022/11/29 08:48:18;;;;;;;23.63;9.95;;;;;;;-1.87;52.15;102136.84;6040770;23;20085;-88
2022/11/29 08:50:44;;;;;;;21.65;10.30;;;;;;;-1.84;52.75;102162.50;6041400;23;20027;-85
2022/11/29 09:09:14;;;;;;;22.13;11.00;;;;;;;-1.54;52.73;102204.88;6160994;23;20029;-83
2022/11/29 09:11:41;;;;;;;19.60;10.20;;;;;;;-1.44;53.36;102221.69;6157182;23;20053;-83
2022/11/29 09:14:11;;;;;;;25.75;11.82;;;;;;;-1.33;53.18;102203.59;6173474;23;20248;-90
2022/11/29 09:16:38;;;;;;;21.90;11.80;;;;;;;-1.36;52.59;102182.44;6167897;23;20023;-86
2022/11/29 09:19:04;;;;;;;21.98;11.27;;;;;;;-1.09;52.04;102192.06;6144108;23;20073;-87
2022/11/29 09:24:55;;;;;;;25.20;11.70;;;;;;;-1.77;52.06;102091.97;6151155;23;20024;-92
2022/11/29 09:27:22;;;;;;;25.92;13.10;;;;;;;-1.76;52.38;102093.66;6141290;23;20039;-92
2022/11/29 09:29:51;;;;;;;26.00;13.05;;;;;;;-1.21;52.34;102178.97;6140056;23;20028;-93
2022/11/29 09:32:59;;;;;;;26.80;14.43;;;;;;;-0.90;52.08;102215.94;6159865;23;20053;-92
2022/11/29 09:35:34;;;;;;;28.05;12.55;;;;;;;-1.48;51.80;102147.88;6160075;23;20021;-92
2022/11/29 09:38:01;;;;;;;25.50;11.95;;;;;;;-1.04;51.91;102190.56;6150091;23;20100;-91
2022/11/29 09:51:49;;;;;;;27.17;13.07;;;;;;;-1.38;51.66;102102.13;6171686;23;20013;-94
2022/11/29 09:55:22;;;;;;;25.40;13.18;;;;;;;-0.88;52.60;102197.81;6166575;23;20076;-92
2022/11/29 09:57:51;;;;;;;25.08;12.70;;;;;;;-0.87;52.45;102199.47;6120611;23;20024;-91
2022/11/29 10:00:22;;;;;;;29.40;13.75;;;;;;;-1.20;52.57;102167.22;6144018;23;20039;-91
2022/11/29 10:03:51;;;;;;;26.45;12.05;;;;;;;-1.00;52.77;102189.22;6123660;23;20021;-91
2022/11/29 10:07:14;;;;;;;24.98;12.52;;;;;;;-1.17;53.01;102194.75;6128696;23;20021;-89
2022/11/29 10:10:39;;;;;;;26.15;12.88;;;;;;;-1.12;53.22;102184.38;6147939;23;20035;-88
2022/11/29 10:13:22;;;;;;;24.13;11.88;;;;;;;-1.64;52.67;102082.63;6133321;23;20028;-91
2022/11/29 10:16:22;;;;;;;26.90;11.98;;;;;;;-1.04;52.39;102192.41;6145941;23;20020;-87
2022/11/29 10:19:03;;;;;;;24.52;12.20;;;;;;;-1.14;53.25;102192.56;6114420;23;20021;-86
2022/11/29 10:23:22;;;;;;;25.92;11.70;;;;;;;-1.05;53.11;102193.44;6174624;23;20163;-87
2022/11/29 10:25:52;;;;;;;23.92;11.88;;;;;;;-1.08;53.21;102188.41;6020047;23;20104;-89
2022/11/29 10:28:22;;;;;;;26.40;12.25;;;;;;;-1.11;53.13;102188.72;6004772;23;20014;-91
2022/11/29 10:31:42;;;;;;;26.67;12.23;;;;;;;-1.10;53.11;102191.22;6025985;23;20026;-93
2022/11/29 10:34:35;;;;;;;31.77;12.48;;;;;;;-1.45;53.03;102142.19;6030698;23;20014;-93
2022/11/29 10:37:14;;;;;;;24.33;11.93;;;;;;;-1.80;53.44;102086.94;6133551;23;20021;-88
2022/11/29 10:39:47;;;;;;;25.27;11.95;;;;;;;-1.63;53.52;102133.41;6194738;23;20117;-88
2022/11/29 13:14:42;;;;;;;41.40;15.43;;;;;;;-3.40;55.81;102181.94;6212552;23;20028;-91
2022/11/29 13:18:04;;;;;;;36.22;15.15;;;;;;;-3.66;56.07;102157.75;6098641;23;20081;-88
2022/11/29 13:20:42;;;;;;;39.08;17.55;;;;;;;-3.75;56.60;102147.94;6105367;23;20017;-90
2022/11/29 13:24:08;;;;;;;40.70;16.40;;;;;;;-3.71;56.94;102179.56;6153084;23;20021;-87
2022/11/29 13:26:36;;;;;;;34.47;16.70;;;;;;;-3.77;56.74;102166.81;6036058;23;20400;-87
2022/11/29 13:29:42;;;;;;;41.55;16.73;;;;;;;-3.59;57.15;102225.66;6016348;23;20270;-91
2022/11/29 13:32:23;;;;;;;37.13;17.92;;;;;;;-3.72;57.52;102222.50;6039451;23;20015;-90
2022/11/29 13:35:14;;;;;;;42.42;17.70;;;;;;;-3.70;57.54;102233.88;6039918;23;20106;-88
2022/11/29 13:41:53;;;;;;;43.50;18.63;;;;;;;-3.74;57.58;102233.34;5967253;24;20471;-87
2022/11/29 13:47:31;;;;;;;44.10;18.63;;;;;;;-4.16;57.64;102169.66;5960276;24;20042;-87
2022/11/29 13:50:01;;;;;;;40.85;19.92;;;;;;;-4.61;58.18;102127.59;6105218;23;20025;-90
2022/11/29 13:52:42;;;;;;;46.80;20.38;;;;;;;-3.96;58.55;102231.03;6185574;23;20016;-88
2022/11/29 13:55:28;;;;;;;44.40;20.15;;;;;;;-4.23;58.18;102184.56;6192085;23;20016;-86
2022/11/29 13:58:06;;;;;;;56.20;20.75;;;;;;;-3.99;58.01;102234.00;6191767;23;20063;-88
2022/11/29 14:00:51;;;;;;;51.45;21.10;;;;;;;-4.11;58.44;102239.50;6193490;23;20020;-88
2022/11/29 14:03:19;;;;;;;44.10;19.58;;;;;;;-4.19;58.57;102230.53;6193110;23;20032;-88
2022/11/29 14:05:51;;;;;;;41.85;19.92;;;;;;;-4.59;58.95;102170.19;6168541;23;20375;-90
2022/11/29 14:08:38;;;;;;;44.45;20.70;;;;;;;-4.21;58.71;102237.84;6164880;23;20095;-85
2022/11/29 14:18:02;;;;;;;35.03;16.20;;;;;;;-4.43;59.19;102223.00;6195488;23;20032;-85
2022/11/29 14:20:28;;;;;;;40.97;16.35;;;;;;;-4.45;59.29;102222.28;6191488;23;20462;-88
2022/11/29 14:27:17;;;;;;;31.35;15.43;;;;;;;-4.37;58.77;102225.94;6105526;23;20534;-87
2022/11/29 14:29:57;;;;;;;37.42;17.70;;;;;;;-4.68;58.83;102195.06;6074854;23;20014;-90
2022/11/29 14:32:59;;;;;;;39.17;17.48;;;;;;;-4.35;58.88;102218.59;6051036;23;20015;-89
2022/11/29 14:36:50;;;;;;;46.50;17.98;;;;;;;-4.43;58.99;102229.19;6004903;23;20413;-86
2022/11/29 14:39:50;;;;;;;49.90;17.73;;;;;;;-5.00;58.75;102145.50;5997176;24;20024;-87
2022/11/29 14:42:30;;;;;;;40.92;17.15;;;;;;;-4.64;59.22;102228.47;6029660;23;20023;-89
2022/11/29 14:45:35;;;;;;;49.17;18.55;;;;;;;-4.53;59.16;102239.03;6027991;23;20075;-89
2022/11/29 14:52:27;;;;;;;40.55;16.80;;;;;;;-4.64;58.70;102186.59;5957020;24;20080;-88
2022/11/29 14:55:50;;;;;;;36.70;16.90;;;;;;;-4.44;58.59;102230.13;5944594;24;20021;-89
2022/11/29 14:58:19;;;;;;;37.20;15.98;;;;;;;-4.46;58.64;102239.31;5962655;24;20086;-87
2022/11/29 15:00:47;;;;;;;34.78;16.42;;;;;;;-4.62;58.42;102211.34;5959154;24;20017;-87
2022/11/29 15:03:14;;;;;;;40.27;17.23;;;;;;;-4.38;58.55;102236.75;5984384;23;20056;-88
2022/11/29 15:05:44;;;;;;;41.38;16.98;;;;;;;-4.64;58.35;102205.28;6038178;23;20023;-87
2022/11/29 15:08:51;;;;;;;46.22;16.08;;;;;;;-4.40;58.42;102226.22;6005322;23;20019;-86
2022/11/29 15:11:36;;;;;;;37.40;16.80;;;;;;;-4.51;58.52;102226.34;6018235;23;20047;-87
2022/11/29 15:14:16;;;;;;;44.38;16.95;;;;;;;-4.86;58.53;102176.25;6084003;23;20036;-88
2022/11/29 15:17:14;;;;;;;39.28;15.63;;;;;;;-4.69;58.25;102196.03;6079006;23;20018;-92
2022/11/29 15:20:09;;;;;;;35.67;16.38;;;;;;;-4.41;58.08;102229.03;6052046;23;20022;-87
2022/11/29 15:23:13;;;;;;;;;;;;;;;-4.48;58.14;102226.06;6193884;23;20076;-85
2022/11/29 15:26:18;;;;;;;40.50;16.70;;;;;;;-4.56;58.19;102232.13;6132106;23;19920;-89
2022/11/29 15:28:46;;;;;;;39.45;17.30;;;;;;;-4.58;58.26;102219.91;6156613;23;20108;-87
2022/11/29 15:31:24;;;;;;;33.08;15.27;;;;;;;-4.73;57.84;102182.16;6157235;23;20059;-89
2022/11/29 15:33:55;;;;;;;35.85;15.38;;;;;;;-5.13;57.89;102129.78;6167140;23;20022;-90
2022/11/29 15:36:28;;;;;;;35.65;15.90;;;;;;;-4.78;57.93;102201.25;6138552;23;20065;-91
2022/11/29 15:38:58;;;;;;;34.47;15.50;;;;;;;-4.68;58.21;102221.75;6162670;23;20293;-84
2022/11/29 15:44:21;;;;;;;35.95;15.02;;;;;;;-4.72;58.38;102210.50;6217219;23;20028;-86
2022/11/29 15:46:47;;;;;;;38.17;15.85;;;;;;;-4.43;57.92;102241.69;6189841;23;20024;-88
2022/11/29 15:49:21;;;;;;;40.08;16.30;;;;;;;-4.79;57.63;102183.53;6216047;23;20048;-87
2022/11/29 15:51:58;;;;;;;33.97;15.02;;;;;;;-4.61;57.60;102218.34;6217530;23;20044;-86
2022/11/29 15:54:37;;;;;;;39.77;15.10;;;;;;;-4.81;57.82;102190.84;6165814;23;20039;-86
2022/11/29 15:57:17;;;;;;;38.83;15.50;;;;;;;-5.00;57.92;102170.38;6219978;23;20248;-87
2022/11/29 15:59:53;;;;;;;30.77;13.73;;;;;;;-4.56;57.66;102226.81;6183852;23;20076;-86
2022/11/29 16:02:43;;;;;;;38.17;15.30;;;;;;;-4.79;57.91;102178.22;6219546;23;20020;-83
2022/11/29 16:05:21;;;;;;;48.53;16.50;;;;;;;-4.56;57.43;102209.94;6188526;23;20043;-84
2022/11/29 16:07:56;;;;;;;39.22;15.45;;;;;;;-4.48;57.13;102218.06;6190759;23;20019;-84
2022/11/29 16:10:34;;;;;;;40.58;15.57;;;;;;;-4.64;57.48;102193.78;6214909;23;20023;-84
2022/11/29 16:13:24;;;;;;;34.05;14.82;;;;;;;-4.55;57.76;102215.13;6188921;23;20080;-85
2022/11/29 16:16:25;;;;;;;37.65;15.55;;;;;;;-4.50;57.23;102202.19;6211643;23;20021;-84
2022/11/29 16:18:53;;;;;;;31.42;14.90;;;;;;;-4.72;57.14;102171.31;6162897;23;20048;-84
2022/11/29 16:21:29;;;;;;;33.90;14.45;;;;;;;-4.49;57.46;102214.56;6188060;23;20468;-81
2022/11/29 16:23:57;;;;;;;31.40;15.07;;;;;;;-4.78;57.63;102168.38;6214843;23;20031;-81
2022/11/29 16:26:35;;;;;;;33.97;15.30;;;;;;;-4.61;57.85;102214.84;6191035;23;20028;-81
2022/11/29 16:29:05;;;;;;;36.20;15.63;;;;;;;-4.64;57.64;102204.47;6215867;23;20024;-81
2022/11/29 16:31:38;;;;;;;39.00;16.05;;;;;;;-4.83;57.71;102167.97;6215806;23;20044;-80
2022/11/29 16:34:17;;;;;;;29.90;15.32;;;;;;;-4.49;57.47;102206.56;6213602;23;20024;-82
2022/11/29 16:36:45;;;;;;;36.05;15.82;;;;;;;-5.14;57.94;102137.94;6167714;23;20601;-82
2022/11/29 16:39:37;;;;;;;33.20;15.17;;;;;;;-4.66;58.43;102225.13;6165973;23;20024;-80
2022/11/29 16:42:18;;;;;;;41.40;16.45;;;;;;;-4.82;58.97;102225.69;6187527;23;20027;-82
2022/11/29 16:44:47;;;;;;;34.33;14.93;;;;;;;-4.96;58.43;102230.47;6191037;23;20016;-81
2022/11/29 16:47:19;;;;;;;39.60;16.08;;;;;;;-4.78;58.64;102230.59;6172623;23;20034;-81
2022/11/29 16:50:16;;;;;;;36.00;16.42;;;;;;;-5.20;57.84;102168.66;6218235;23;20016;-81
2022/11/29 16:52:43;;;;;;;;;;;;;;;-4.77;57.92;102231.44;6220580;23;20017;-81